Pagrindinis puslapis
METAR-TAF:

METAR-TAF

Oro uostai :

Igdyras, Turkija

platuma: 39-58-36N, ilguma: 43-52-36E, Aukštis: 945 m

Dabartinis oras

Ataskaita buvo paskelbta 33 minutes, ne 09:50 UTC
Vėjas 3 kt iš Pietų, svyruoja nuo Rytų ir Vakarų
Temperatūra 11°C
Drėgmė 28%
Slėgis 1027 hPa
Matomumas 10 km arba daugiau
nėra debesų žemiau 1500 m ir nėra kamuolinių lietaus debesų

METAR: LTCT 270950Z 17003KT 090V260 CAVOK 11/M07 Q1027

Laikas: 13:23 (10:23 UTC)

Prognozė

Ataskaita buvo paskelbta 2 valandos ir 43 minutes, ne 07:40 UTC
Prognozė galioja nuo 27 metu 09 UTC su 27 metu 18 UTC
Vėjas 2 kt nuo kintamojo kryptimis
Matomumas 10 km arba daugiau
nėra debesų žemiau 1500 m ir nėra kamuolinių lietaus debesų

TAF: LTCT 270740Z 2709/2718 VRB02KT CAVOK

Orai ataskaitas ir orų prognozės (METAR, TAF).

turimą stotys yra geltonos ir raudonos taškus žemėlapyje.

Perkelti pele per norėdami pamatyti stoties vardą.

Tada spustelėkite, norėdami matyti oro stebėjimo ir prognozės.

Norėdami pakeisti žemėlapį: spustelėkite ant žalios mygtukų su juodo kryžiaus žemyn,; žalią mygtuką su brūkšneliu, jei norite nutolinti; arba žalių rodyklių gretimoms žemėlapius.


METAR-TAF: